sensor_id;sensor_type;location;lat;lon;timestamp;temperature;humidity
11577;DHT22;5844;51.496;6.788;2024-02-28T00:01:22;1.60;1.00
11577;DHT22;5844;51.496;6.788;2024-02-28T00:03:47;1.70;1.00
11577;DHT22;5844;51.496;6.788;2024-02-28T00:06:16;1.70;1.00
11577;DHT22;5844;51.496;6.788;2024-02-28T00:08:42;1.60;1.00
11577;DHT22;5844;51.496;6.788;2024-02-28T00:11:07;1.60;1.00
11577;DHT22;5844;51.496;6.788;2024-02-28T00:13:33;1.60;1.00
11577;DHT22;5844;51.496;6.788;2024-02-28T00:15:59;1.60;1.00
11577;DHT22;5844;51.496;6.788;2024-02-28T00:18:24;3.00;1.00
11577;DHT22;5844;51.496;6.788;2024-02-28T00:20:50;1.80;1.00
11577;DHT22;5844;51.496;6.788;2024-02-28T00:23:15;1.90;1.00
11577;DHT22;5844;51.496;6.788;2024-02-28T00:25:41;3.00;1.00
11577;DHT22;5844;51.496;6.788;2024-02-28T00:28:07;2.10;1.00
11577;DHT22;5844;51.496;6.788;2024-02-28T00:30:32;2.20;1.00
11577;DHT22;5844;51.496;6.788;2024-02-28T00:32:59;2.20;1.00
11577;DHT22;5844;51.496;6.788;2024-02-28T00:35:24;2.20;1.00
11577;DHT22;5844;51.496;6.788;2024-02-28T00:37:50;2.10;1.00
11577;DHT22;5844;51.496;6.788;2024-02-28T00:40:16;2.20;1.00
11577;DHT22;5844;51.496;6.788;2024-02-28T00:42:41;2.20;1.00
11577;DHT22;5844;51.496;6.788;2024-02-28T00:45:09;2.10;1.00
11577;DHT22;5844;51.496;6.788;2024-02-28T00:47:35;2.10;1.00
11577;DHT22;5844;51.496;6.788;2024-02-28T00:50:01;2.10;1.00
11577;DHT22;5844;51.496;6.788;2024-02-28T00:52:29;2.80;1.00
11577;DHT22;5844;51.496;6.788;2024-02-28T00:54:55;2.10;1.00
11577;DHT22;5844;51.496;6.788;2024-02-28T00:57:20;2.10;1.00
11577;DHT22;5844;51.496;6.788;2024-02-28T01:02:21;2.20;1.00
11577;DHT22;5844;51.496;6.788;2024-02-28T01:04:47;3.30;1.00
11577;DHT22;5844;51.496;6.788;2024-02-28T01:07:13;2.30;1.00
11577;DHT22;5844;51.496;6.788;2024-02-28T01:09:38;2.30;1.00
11577;DHT22;5844;51.496;6.788;2024-02-28T01:12:04;3.30;1.00
11577;DHT22;5844;51.496;6.788;2024-02-28T01:14:30;2.30;1.00
11577;DHT22;5844;51.496;6.788;2024-02-28T01:16:56;2.40;1.00
11577;DHT22;5844;51.496;6.788;2024-02-28T01:19:21;3.50;1.00
11577;DHT22;5844;51.496;6.788;2024-02-28T01:21:47;2.40;1.00
11577;DHT22;5844;51.496;6.788;2024-02-28T01:24:12;3.50;1.00
11577;DHT22;5844;51.496;6.788;2024-02-28T01:26:38;2.60;1.00
11577;DHT22;5844;51.496;6.788;2024-02-28T01:29:03;2.60;1.00
11577;DHT22;5844;51.496;6.788;2024-02-28T01:31:29;2.60;1.00
11577;DHT22;5844;51.496;6.788;2024-02-28T01:33:55;2.60;1.00
11577;DHT22;5844;51.496;6.788;2024-02-28T01:36:21;2.50;1.00
11577;DHT22;5844;51.496;6.788;2024-02-28T01:38:47;2.40;1.00
11577;DHT22;5844;51.496;6.788;2024-02-28T01:41:12;2.40;1.00
11577;DHT22;5844;51.496;6.788;2024-02-28T01:43:38;3.20;1.00
11577;DHT22;5844;51.496;6.788;2024-02-28T01:46:13;2.30;1.00
11577;DHT22;5844;51.496;6.788;2024-02-28T01:48:41;2.40;1.00
11577;DHT22;5844;51.496;6.788;2024-02-28T01:51:06;3.20;1.00
11577;DHT22;5844;51.496;6.788;2024-02-28T01:53:32;2.40;1.00
11577;DHT22;5844;51.496;6.788;2024-02-28T01:55:59;3.80;1.00
11577;DHT22;5844;51.496;6.788;2024-02-28T01:58:24;2.50;1.00
11577;DHT22;5844;51.496;6.788;2024-02-28T02:00:50;2.50;1.00
11577;DHT22;5844;51.496;6.788;2024-02-28T02:03:17;3.60;1.00
11577;DHT22;5844;51.496;6.788;2024-02-28T02:05:42;2.50;1.00
11577;DHT22;5844;51.496;6.788;2024-02-28T02:08:09;2.50;1.00
11577;DHT22;5844;51.496;6.788;2024-02-28T02:10:35;2.50;1.00
11577;DHT22;5844;51.496;6.788;2024-02-28T02:13:07;3.00;1.00
11577;DHT22;5844;51.496;6.788;2024-02-28T02:15:33;3.00;1.00
11577;DHT22;5844;51.496;6.788;2024-02-28T02:18:00;2.30;1.00
11577;DHT22;5844;51.496;6.788;2024-02-28T02:20:26;2.30;1.00
11577;DHT22;5844;51.496;6.788;2024-02-28T02:22:55;2.90;1.00
11577;DHT22;5844;51.496;6.788;2024-02-28T02:25:21;2.20;1.00
11577;DHT22;5844;51.496;6.788;2024-02-28T02:27:47;3.30;1.00
11577;DHT22;5844;51.496;6.788;2024-02-28T02:30:13;3.40;1.00
11577;DHT22;5844;51.496;6.788;2024-02-28T02:32:38;2.10;1.00
11577;DHT22;5844;51.496;6.788;2024-02-28T02:35:04;2.10;1.00
11577;DHT22;5844;51.496;6.788;2024-02-28T02:37:30;2.10;1.00
11577;DHT22;5844;51.496;6.788;2024-02-28T02:39:56;2.20;1.00
11577;DHT22;5844;51.496;6.788;2024-02-28T02:42:21;3.60;1.00
11577;DHT22;5844;51.496;6.788;2024-02-28T02:44:47;2.20;1.00
11577;DHT22;5844;51.496;6.788;2024-02-28T02:47:12;2.30;1.00
11577;DHT22;5844;51.496;6.788;2024-02-28T02:49:38;2.30;1.00
11577;DHT22;5844;51.496;6.788;2024-02-28T02:52:04;3.30;1.00
11577;DHT22;5844;51.496;6.788;2024-02-28T02:54:30;2.20;1.00
11577;DHT22;5844;51.496;6.788;2024-02-28T02:56:55;2.00;1.00
11577;DHT22;5844;51.496;6.788;2024-02-28T02:59:24;2.00;1.00
11577;DHT22;5844;51.496;6.788;2024-02-28T03:01:50;2.00;1.00
11577;DHT22;5844;51.496;6.788;2024-02-28T03:04:16;2.00;1.00
11577;DHT22;5844;51.496;6.788;2024-02-28T03:06:41;2.00;1.00
11577;DHT22;5844;51.496;6.788;2024-02-28T03:09:07;3.00;1.00
11577;DHT22;5844;51.496;6.788;2024-02-28T03:11:33;2.00;1.00
11577;DHT22;5844;51.496;6.788;2024-02-28T03:14:00;2.80;1.00
11577;DHT22;5844;51.496;6.788;2024-02-28T03:16:26;2.10;1.00
11577;DHT22;5844;51.496;6.788;2024-02-28T03:18:53;2.10;1.00
11577;DHT22;5844;51.496;6.788;2024-02-28T03:21:19;2.10;1.00
11577;DHT22;5844;51.496;6.788;2024-02-28T03:23:46;2.20;1.00
11577;DHT22;5844;51.496;6.788;2024-02-28T03:26:11;2.10;1.00
11577;DHT22;5844;51.496;6.788;2024-02-28T03:28:37;2.10;1.00
11577;DHT22;5844;51.496;6.788;2024-02-28T03:31:02;2.10;1.00
11577;DHT22;5844;51.496;6.788;2024-02-28T03:33:28;2.20;1.00
11577;DHT22;5844;51.496;6.788;2024-02-28T03:35:57;3.00;1.00
11577;DHT22;5844;51.496;6.788;2024-02-28T03:38:22;2.90;1.00
11577;DHT22;5844;51.496;6.788;2024-02-28T03:40:48;2.30;1.00
11577;DHT22;5844;51.496;6.788;2024-02-28T03:43:13;3.20;1.00
11577;DHT22;5844;51.496;6.788;2024-02-28T03:45:39;3.20;1.00
11577;DHT22;5844;51.496;6.788;2024-02-28T03:48:05;2.40;1.00
11577;DHT22;5844;51.496;6.788;2024-02-28T03:50:31;2.40;1.00
11577;DHT22;5844;51.496;6.788;2024-02-28T03:52:56;2.50;1.00
11577;DHT22;5844;51.496;6.788;2024-02-28T03:55:22;2.50;1.00
11577;DHT22;5844;51.496;6.788;2024-02-28T03:57:48;3.10;1.00
11577;DHT22;5844;51.496;6.788;2024-02-28T04:00:15;2.70;1.00
11577;DHT22;5844;51.496;6.788;2024-02-28T04:02:41;2.70;1.00
11577;DHT22;5844;51.496;6.788;2024-02-28T04:05:06;3.70;1.00
11577;DHT22;5844;51.496;6.788;2024-02-28T04:07:32;2.80;1.00
11577;DHT22;5844;51.496;6.788;2024-02-28T04:09:58;2.70;1.00
11577;DHT22;5844;51.496;6.788;2024-02-28T04:12:24;2.70;1.00
11577;DHT22;5844;51.496;6.788;2024-02-28T04:14:50;3.20;1.00
11577;DHT22;5844;51.496;6.788;2024-02-28T04:17:15;2.80;1.00
11577;DHT22;5844;51.496;6.788;2024-02-28T04:19:41;2.80;1.00
11577;DHT22;5844;51.496;6.788;2024-02-28T04:22:06;3.70;1.00
11577;DHT22;5844;51.496;6.788;2024-02-28T04:24:32;3.00;1.00
11577;DHT22;5844;51.496;6.788;2024-02-28T04:26:58;3.30;1.00
11577;DHT22;5844;51.496;6.788;2024-02-28T04:29:25;4.30;1.00
11577;DHT22;5844;51.496;6.788;2024-02-28T04:31:50;4.20;1.00
11577;DHT22;5844;51.496;6.788;2024-02-28T04:34:16;3.80;1.00
11577;DHT22;5844;51.496;6.788;2024-02-28T04:36:42;4.50;1.00
11577;DHT22;5844;51.496;6.788;2024-02-28T04:39:07;3.30;1.00
11577;DHT22;5844;51.496;6.788;2024-02-28T04:41:33;3.30;1.00
11577;DHT22;5844;51.496;6.788;2024-02-28T04:43:59;3.90;1.00
11577;DHT22;5844;51.496;6.788;2024-02-28T04:46:25;4.10;1.00
11577;DHT22;5844;51.496;6.788;2024-02-28T04:48:50;3.50;1.00
11577;DHT22;5844;51.496;6.788;2024-02-28T04:51:16;4.10;1.00
11577;DHT22;5844;51.496;6.788;2024-02-28T04:53:45;3.60;1.00
11577;DHT22;5844;51.496;6.788;2024-02-28T04:56:11;3.40;1.00
11577;DHT22;5844;51.496;6.788;2024-02-28T04:58:37;3.30;1.00
11577;DHT22;5844;51.496;6.788;2024-02-28T05:01:03;3.30;1.00
11577;DHT22;5844;51.496;6.788;2024-02-28T05:03:28;3.30;1.00
11577;DHT22;5844;51.496;6.788;2024-02-28T05:05:54;4.10;1.00
11577;DHT22;5844;51.496;6.788;2024-02-28T05:08:20;3.30;1.00
11577;DHT22;5844;51.496;6.788;2024-02-28T05:10:46;4.20;18.40
11577;DHT22;5844;51.496;6.788;2024-02-28T05:13:12;3.50;1.00
11577;DHT22;5844;51.496;6.788;2024-02-28T05:15:37;3.70;1.00
11577;DHT22;5844;51.496;6.788;2024-02-28T05:18:03;3.30;1.00
11577;DHT22;5844;51.496;6.788;2024-02-28T05:20:29;3.20;1.00
11577;DHT22;5844;51.496;6.788;2024-02-28T05:22:54;3.20;1.00
11577;DHT22;5844;51.496;6.788;2024-02-28T05:25:20;3.30;1.20
11577;DHT22;5844;51.496;6.788;2024-02-28T05:27:46;4.80;1.60
11577;DHT22;5844;51.496;6.788;2024-02-28T05:30:12;3.70;1.00
11577;DHT22;5844;51.496;6.788;2024-02-28T05:32:37;3.40;1.00
11577;DHT22;5844;51.496;6.788;2024-02-28T05:35:03;3.70;1.00
11577;DHT22;5844;51.496;6.788;2024-02-28T05:37:29;3.40;1.00
11577;DHT22;5844;51.496;6.788;2024-02-28T05:39:54;3.50;1.00
11577;DHT22;5844;51.496;6.788;2024-02-28T05:42:20;3.20;1.00
11577;DHT22;5844;51.496;6.788;2024-02-28T05:44:49;3.10;1.00
11577;DHT22;5844;51.496;6.788;2024-02-28T05:47:16;3.10;1.00
11577;DHT22;5844;51.496;6.788;2024-02-28T05:49:42;3.90;1.00
11577;DHT22;5844;51.496;6.788;2024-02-28T05:52:07;4.30;1.00
11577;DHT22;5844;51.496;6.788;2024-02-28T05:54:33;4.40;1.00
11577;DHT22;5844;51.496;6.788;2024-02-28T05:57:01;3.50;1.00
11577;DHT22;5844;51.496;6.788;2024-02-28T05:59:27;2.90;1.00
11577;DHT22;5844;51.496;6.788;2024-02-28T06:01:55;4.10;3.20
11577;DHT22;5844;51.496;6.788;2024-02-28T06:04:21;3.10;5.00
11577;DHT22;5844;51.496;6.788;2024-02-28T06:06:46;3.90;5.20
11577;DHT22;5844;51.496;6.788;2024-02-28T06:09:12;3.20;4.60
11577;DHT22;5844;51.496;6.788;2024-02-28T06:11:37;3.10;4.40
11577;DHT22;5844;51.496;6.788;2024-02-28T06:14:03;3.20;3.80
11577;DHT22;5844;51.496;6.788;2024-02-28T06:16:30;3.90;4.70
11577;DHT22;5844;51.496;6.788;2024-02-28T06:18:55;3.10;5.50
11577;DHT22;5844;51.496;6.788;2024-02-28T06:21:24;3.50;7.80
11577;DHT22;5844;51.496;6.788;2024-02-28T06:23:50;4.50;8.80
11577;DHT22;5844;51.496;6.788;2024-02-28T06:26:16;4.40;9.70
11577;DHT22;5844;51.496;6.788;2024-02-28T06:28:45;3.50;9.10
11577;DHT22;5844;51.496;6.788;2024-02-28T06:31:15;3.50;7.90
11577;DHT22;5844;51.496;6.788;2024-02-28T06:33:41;3.40;7.40
11577;DHT22;5844;51.496;6.788;2024-02-28T06:36:07;3.30;7.00
11577;DHT22;5844;51.496;6.788;2024-02-28T06:38:32;3.30;8.40
11577;DHT22;5844;51.496;6.788;2024-02-28T06:41:03;4.50;9.70
11577;DHT22;5844;51.496;6.788;2024-02-28T06:43:30;3.40;9.50
11577;DHT22;5844;51.496;6.788;2024-02-28T06:45:56;3.40;10.80
11577;DHT22;5844;51.496;6.788;2024-02-28T06:48:21;4.10;10.50
11577;DHT22;5844;51.496;6.788;2024-02-28T06:50:47;3.50;9.90
11577;DHT22;5844;51.496;6.788;2024-02-28T06:53:12;4.60;11.70
11577;DHT22;5844;51.496;6.788;2024-02-28T06:55:38;3.90;10.60
11577;DHT22;5844;51.496;6.788;2024-02-28T06:58:04;4.10;11.00
11577;DHT22;5844;51.496;6.788;2024-02-28T07:00:29;3.60;9.30
11577;DHT22;5844;51.496;6.788;2024-02-28T07:02:55;3.30;8.90
11577;DHT22;5844;51.496;6.788;2024-02-28T07:05:21;4.00;8.80
11577;DHT22;5844;51.496;6.788;2024-02-28T07:07:47;3.20;9.90
11577;DHT22;5844;51.496;6.788;2024-02-28T07:10:13;4.00;8.00
11577;DHT22;5844;51.496;6.788;2024-02-28T07:12:39;4.00;7.80
11577;DHT22;5844;51.496;6.788;2024-02-28T07:15:05;4.00;7.60
11577;DHT22;5844;51.496;6.788;2024-02-28T07:17:31;3.10;9.60
11577;DHT22;5844;51.496;6.788;2024-02-28T07:19:57;3.10;9.50
11577;DHT22;5844;51.496;6.788;2024-02-28T07:22:22;3.20;11.00
11577;DHT22;5844;51.496;6.788;2024-02-28T07:24:48;3.10;10.90
11577;DHT22;5844;51.496;6.788;2024-02-28T07:27:14;3.10;10.40
11577;DHT22;5844;51.496;6.788;2024-02-28T07:29:39;4.10;11.10
11577;DHT22;5844;51.496;6.788;2024-02-28T07:32:05;3.80;11.30
11577;DHT22;5844;51.496;6.788;2024-02-28T07:34:31;3.20;13.40
11577;DHT22;5844;51.496;6.788;2024-02-28T07:36:56;3.30;37.10
11577;DHT22;5844;51.496;6.788;2024-02-28T07:39:22;4.10;15.20
11577;DHT22;5844;51.496;6.788;2024-02-28T07:41:49;4.20;16.20
11577;DHT22;5844;51.496;6.788;2024-02-28T07:44:16;3.60;16.20
11577;DHT22;5844;51.496;6.788;2024-02-28T07:46:42;4.10;16.30
11577;DHT22;5844;51.496;6.788;2024-02-28T07:49:08;4.50;15.50
11577;DHT22;5844;51.496;6.788;2024-02-28T07:51:34;4.70;14.40
11577;DHT22;5844;51.496;6.788;2024-02-28T07:53:59;4.90;11.20
11577;DHT22;5844;51.496;6.788;2024-02-28T07:56:25;3.80;9.10
11577;DHT22;5844;51.496;6.788;2024-02-28T07:58:51;4.90;8.80
11577;DHT22;5844;51.496;6.788;2024-02-28T08:01:17;5.00;6.30
11577;DHT22;5844;51.496;6.788;2024-02-28T08:03:43;5.30;6.60
11577;DHT22;5844;51.496;6.788;2024-02-28T08:06:08;5.00;5.70
11577;DHT22;5844;51.496;6.788;2024-02-28T08:08:35;4.00;4.70
11577;DHT22;5844;51.496;6.788;2024-02-28T08:11:00;4.40;5.60
11577;DHT22;5844;51.496;6.788;2024-02-28T08:13:26;4.40;6.70
11577;DHT22;5844;51.496;6.788;2024-02-28T08:15:55;5.00;2.50
11577;DHT22;5844;51.496;6.788;2024-02-28T08:18:21;4.10;1.80
11577;DHT22;5844;51.496;6.788;2024-02-28T08:20:46;4.20;1.00
11577;DHT22;5844;51.496;6.788;2024-02-28T08:23:12;5.10;1.00
11577;DHT22;5844;51.496;6.788;2024-02-28T08:25:38;4.10;1.00
11577;DHT22;5844;51.496;6.788;2024-02-28T08:28:04;4.10;1.00
11577;DHT22;5844;51.496;6.788;2024-02-28T08:30:29;4.10;1.00
11577;DHT22;5844;51.496;6.788;2024-02-28T08:32:56;4.80;1.00
11577;DHT22;5844;51.496;6.788;2024-02-28T08:35:23;4.20;1.00
11577;DHT22;5844;51.496;6.788;2024-02-28T08:37:49;4.40;1.00
11577;DHT22;5844;51.496;6.788;2024-02-28T08:40:15;5.70;1.00
11577;DHT22;5844;51.496;6.788;2024-02-28T08:42:41;4.40;1.00
11577;DHT22;5844;51.496;6.788;2024-02-28T08:45:07;5.90;1.00
11577;DHT22;5844;51.496;6.788;2024-02-28T08:47:33;4.70;1.00
11577;DHT22;5844;51.496;6.788;2024-02-28T08:49:59;4.90;1.00
11577;DHT22;5844;51.496;6.788;2024-02-28T08:52:24;5.20;1.00
11577;DHT22;5844;51.496;6.788;2024-02-28T08:54:50;5.40;1.00
11577;DHT22;5844;51.496;6.788;2024-02-28T08:57:16;5.90;1.00
11577;DHT22;5844;51.496;6.788;2024-02-28T08:59:42;4.90;1.00
11577;DHT22;5844;51.496;6.788;2024-02-28T09:02:08;4.90;1.00
11577;DHT22;5844;51.496;6.788;2024-02-28T09:04:34;5.00;1.00
11577;DHT22;5844;51.496;6.788;2024-02-28T09:07:00;5.30;1.00
11577;DHT22;5844;51.496;6.788;2024-02-28T09:09:26;5.50;1.00
11577;DHT22;5844;51.496;6.788;2024-02-28T09:11:53;5.20;1.00
11577;DHT22;5844;51.496;6.788;2024-02-28T09:14:18;5.40;1.00
11577;DHT22;5844;51.496;6.788;2024-02-28T09:16:44;4.90;1.00
11577;DHT22;5844;51.496;6.788;2024-02-28T09:19:10;4.90;1.00
11577;DHT22;5844;51.496;6.788;2024-02-28T09:21:35;5.10;1.00
11577;DHT22;5844;51.496;6.788;2024-02-28T09:24:01;5.60;1.00
11577;DHT22;5844;51.496;6.788;2024-02-28T09:26:27;4.80;1.00
11577;DHT22;5844;51.496;6.788;2024-02-28T09:28:52;5.00;1.00
11577;DHT22;5844;51.496;6.788;2024-02-28T09:31:18;5.00;1.00
11577;DHT22;5844;51.496;6.788;2024-02-28T09:33:44;5.00;1.00
11577;DHT22;5844;51.496;6.788;2024-02-28T09:36:10;5.20;1.00
11577;DHT22;5844;51.496;6.788;2024-02-28T09:38:37;5.30;1.00
11577;DHT22;5844;51.496;6.788;2024-02-28T09:41:03;5.50;1.00
11577;DHT22;5844;51.496;6.788;2024-02-28T09:43:32;5.20;1.00
11577;DHT22;5844;51.496;6.788;2024-02-28T09:46:04;5.10;1.00
11577;DHT22;5844;51.496;6.788;2024-02-28T09:48:30;5.10;1.00
11577;DHT22;5844;51.496;6.788;2024-02-28T09:51:00;5.20;1.00
11577;DHT22;5844;51.496;6.788;2024-02-28T09:53:26;5.30;1.00
11577;DHT22;5844;51.496;6.788;2024-02-28T09:55:52;5.40;1.00
11577;DHT22;5844;51.496;6.788;2024-02-28T09:58:18;6.20;1.00
11577;DHT22;5844;51.496;6.788;2024-02-28T10:00:46;6.80;1.00
11577;DHT22;5844;51.496;6.788;2024-02-28T10:03:15;5.90;1.00
11577;DHT22;5844;51.496;6.788;2024-02-28T10:05:42;5.90;1.00
11577;DHT22;5844;51.496;6.788;2024-02-28T10:08:08;6.00;1.00
11577;DHT22;5844;51.496;6.788;2024-02-28T10:10:37;6.10;1.00
11577;DHT22;5844;51.496;6.788;2024-02-28T10:13:03;7.00;1.00
11577;DHT22;5844;51.496;6.788;2024-02-28T10:15:30;6.40;1.00
11577;DHT22;5844;51.496;6.788;2024-02-28T10:17:55;6.40;1.00
11577;DHT22;5844;51.496;6.788;2024-02-28T10:20:21;6.40;1.00
11577;DHT22;5844;51.496;6.788;2024-02-28T10:22:47;6.40;1.00
11577;DHT22;5844;51.496;6.788;2024-02-28T10:25:13;6.50;1.00
11577;DHT22;5844;51.496;6.788;2024-02-28T10:27:40;6.70;1.00
11577;DHT22;5844;51.496;6.788;2024-02-28T10:30:07;7.20;1.00
11577;DHT22;5844;51.496;6.788;2024-02-28T10:32:33;7.10;1.00
11577;DHT22;5844;51.496;6.788;2024-02-28T10:35:01;7.10;1.00
11577;DHT22;5844;51.496;6.788;2024-02-28T10:37:28;7.20;1.00
11577;DHT22;5844;51.496;6.788;2024-02-28T10:39:57;7.20;1.00
11577;DHT22;5844;51.496;6.788;2024-02-28T10:42:25;7.50;1.00
11577;DHT22;5844;51.496;6.788;2024-02-28T10:44:52;7.30;1.00
11577;DHT22;5844;51.496;6.788;2024-02-28T10:47:20;6.90;1.00
11577;DHT22;5844;51.496;6.788;2024-02-28T10:49:46;6.80;1.00
11577;DHT22;5844;51.496;6.788;2024-02-28T10:52:12;6.50;1.00
11577;DHT22;5844;51.496;6.788;2024-02-28T10:54:40;6.40;1.00
11577;DHT22;5844;51.496;6.788;2024-02-28T10:57:08;6.30;1.00
11577;DHT22;5844;51.496;6.788;2024-02-28T10:59:37;6.30;1.00
11577;DHT22;5844;51.496;6.788;2024-02-28T11:02:05;6.90;1.00
11577;DHT22;5844;51.496;6.788;2024-02-28T11:04:31;6.10;1.00
11577;DHT22;5844;51.496;6.788;2024-02-28T11:06:57;4.80;1.00
11577;DHT22;5844;51.496;6.788;2024-02-28T11:09:24;6.10;1.00
11577;DHT22;5844;51.496;6.788;2024-02-28T11:11:54;6.20;1.00
11577;DHT22;5844;51.496;6.788;2024-02-28T11:14:21;6.20;1.00
11577;DHT22;5844;51.496;6.788;2024-02-28T11:16:48;6.80;1.00
11577;DHT22;5844;51.496;6.788;2024-02-28T11:19:24;6.70;1.00
11577;DHT22;5844;51.496;6.788;2024-02-28T11:21:56;6.80;1.00
11577;DHT22;5844;51.496;6.788;2024-02-28T11:24:23;6.80;1.00
11577;DHT22;5844;51.496;6.788;2024-02-28T11:26:52;6.90;1.00
11577;DHT22;5844;51.496;6.788;2024-02-28T11:29:25;6.80;1.00
11577;DHT22;5844;51.496;6.788;2024-02-28T11:31:51;6.80;1.00
11577;DHT22;5844;51.496;6.788;2024-02-28T11:34:17;6.60;1.00
11577;DHT22;5844;51.496;6.788;2024-02-28T11:36:43;7.10;1.00
11577;DHT22;5844;51.496;6.788;2024-02-28T11:39:08;7.30;1.00
11577;DHT22;5844;51.496;6.788;2024-02-28T11:41:34;8.00;1.00
11577;DHT22;5844;51.496;6.788;2024-02-28T11:44:00;7.00;1.00
11577;DHT22;5844;51.496;6.788;2024-02-28T11:46:26;6.80;1.00
11577;DHT22;5844;51.496;6.788;2024-02-28T11:48:53;7.70;1.00
11577;DHT22;5844;51.496;6.788;2024-02-28T11:51:19;6.80;1.00
11577;DHT22;5844;51.496;6.788;2024-02-28T11:53:45;7.30;1.00
11577;DHT22;5844;51.496;6.788;2024-02-28T11:56:11;7.30;1.00
11577;DHT22;5844;51.496;6.788;2024-02-28T11:58:36;7.70;1.00
11577;DHT22;5844;51.496;6.788;2024-02-28T12:01:02;7.80;1.00
11577;DHT22;5844;51.496;6.788;2024-02-28T12:03:28;7.90;1.00
11577;DHT22;5844;51.496;6.788;2024-02-28T12:05:56;8.10;1.00
11577;DHT22;5844;51.496;6.788;2024-02-28T12:08:21;8.20;1.00
11577;DHT22;5844;51.496;6.788;2024-02-28T12:10:48;8.50;1.00
11577;DHT22;5844;51.496;6.788;2024-02-28T12:13:17;8.20;1.00
11577;DHT22;5844;51.496;6.788;2024-02-28T12:15:45;9.10;1.00
11577;DHT22;5844;51.496;6.788;2024-02-28T12:18:12;9.20;1.00
11577;DHT22;5844;51.496;6.788;2024-02-28T12:20:39;9.30;1.00
11577;DHT22;5844;51.496;6.788;2024-02-28T12:23:05;10.00;1.00
11577;DHT22;5844;51.496;6.788;2024-02-28T12:25:31;10.20;1.00
11577;DHT22;5844;51.496;6.788;2024-02-28T12:27:57;10.10;1.00
11577;DHT22;5844;51.496;6.788;2024-02-28T12:30:23;10.00;1.00
11577;DHT22;5844;51.496;6.788;2024-02-28T12:32:48;10.40;1.00
11577;DHT22;5844;51.496;6.788;2024-02-28T12:35:14;10.90;1.00
11577;DHT22;5844;51.496;6.788;2024-02-28T12:37:39;11.20;1.00
11577;DHT22;5844;51.496;6.788;2024-02-28T12:40:06;11.40;1.00
11577;DHT22;5844;51.496;6.788;2024-02-28T12:42:34;11.10;1.00
11577;DHT22;5844;51.496;6.788;2024-02-28T12:45:00;10.40;1.00
11577;DHT22;5844;51.496;6.788;2024-02-28T12:47:25;10.60;1.00
11577;DHT22;5844;51.496;6.788;2024-02-28T12:49:51;10.50;1.00
11577;DHT22;5844;51.496;6.788;2024-02-28T12:52:17;11.40;1.00
11577;DHT22;5844;51.496;6.788;2024-02-28T12:54:43;12.40;1.00
11577;DHT22;5844;51.496;6.788;2024-02-28T12:57:09;12.60;1.00
11577;DHT22;5844;51.496;6.788;2024-02-28T12:59:34;12.70;1.00
11577;DHT22;5844;51.496;6.788;2024-02-28T13:02:00;12.00;1.00
11577;DHT22;5844;51.496;6.788;2024-02-28T13:04:26;12.10;1.00
11577;DHT22;5844;51.496;6.788;2024-02-28T13:06:53;12.30;1.00
11577;DHT22;5844;51.496;6.788;2024-02-28T13:09:19;12.30;1.00
11577;DHT22;5844;51.496;6.788;2024-02-28T13:11:47;12.30;1.00
11577;DHT22;5844;51.496;6.788;2024-02-28T13:14:12;11.80;1.00
11577;DHT22;5844;51.496;6.788;2024-02-28T13:16:38;11.50;1.00
11577;DHT22;5844;51.496;6.788;2024-02-28T13:19:04;11.00;1.00
11577;DHT22;5844;51.496;6.788;2024-02-28T13:21:30;11.10;1.00
11577;DHT22;5844;51.496;6.788;2024-02-28T13:23:58;10.90;1.00
11577;DHT22;5844;51.496;6.788;2024-02-28T13:26:24;10.80;1.00
11577;DHT22;5844;51.496;6.788;2024-02-28T13:28:49;11.20;1.00
11577;DHT22;5844;51.496;6.788;2024-02-28T13:31:15;11.00;1.00
11577;DHT22;5844;51.496;6.788;2024-02-28T13:33:41;10.50;1.00
11577;DHT22;5844;51.496;6.788;2024-02-28T13:36:07;10.80;1.00
11577;DHT22;5844;51.496;6.788;2024-02-28T13:38:33;11.00;1.00
11577;DHT22;5844;51.496;6.788;2024-02-28T13:40:59;10.90;1.00
11577;DHT22;5844;51.496;6.788;2024-02-28T13:43:25;11.00;1.00
11577;DHT22;5844;51.496;6.788;2024-02-28T13:45:51;10.80;1.00
11577;DHT22;5844;51.496;6.788;2024-02-28T13:48:21;10.80;1.00
11577;DHT22;5844;51.496;6.788;2024-02-28T13:50:49;11.00;1.00
11577;DHT22;5844;51.496;6.788;2024-02-28T13:53:15;10.90;1.00
11577;DHT22;5844;51.496;6.788;2024-02-28T13:55:44;11.10;1.00
11577;DHT22;5844;51.496;6.788;2024-02-28T13:58:14;11.40;1.00
11577;DHT22;5844;51.496;6.788;2024-02-28T14:00:43;11.60;1.00
11577;DHT22;5844;51.496;6.788;2024-02-28T14:03:10;11.80;1.00
11577;DHT22;5844;51.496;6.788;2024-02-28T14:05:36;11.80;1.00
11577;DHT22;5844;51.496;6.788;2024-02-28T14:08:02;11.90;1.00
11577;DHT22;5844;51.496;6.788;2024-02-28T14:10:34;11.70;1.00
11577;DHT22;5844;51.496;6.788;2024-02-28T14:13:00;11.10;1.00
11577;DHT22;5844;51.496;6.788;2024-02-28T14:15:26;10.80;1.00
11577;DHT22;5844;51.496;6.788;2024-02-28T14:17:52;10.50;1.00
11577;DHT22;5844;51.496;6.788;2024-02-28T14:20:17;10.70;1.00
11577;DHT22;5844;51.496;6.788;2024-02-28T14:22:43;10.80;1.00
11577;DHT22;5844;51.496;6.788;2024-02-28T14:25:11;11.00;1.00
11577;DHT22;5844;51.496;6.788;2024-02-28T14:27:41;11.10;1.00
11577;DHT22;5844;51.496;6.788;2024-02-28T14:30:08;11.30;1.00
11577;DHT22;5844;51.496;6.788;2024-02-28T14:32:37;11.30;1.00
11577;DHT22;5844;51.496;6.788;2024-02-28T14:35:05;11.20;1.00
11577;DHT22;5844;51.496;6.788;2024-02-28T14:37:34;11.40;1.00
11577;DHT22;5844;51.496;6.788;2024-02-28T14:40:01;11.60;1.00
11577;DHT22;5844;51.496;6.788;2024-02-28T14:42:28;11.50;1.00
11577;DHT22;5844;51.496;6.788;2024-02-28T14:44:54;11.80;1.00
11577;DHT22;5844;51.496;6.788;2024-02-28T14:47:20;11.40;1.00
11577;DHT22;5844;51.496;6.788;2024-02-28T14:49:46;11.50;1.00
11577;DHT22;5844;51.496;6.788;2024-02-28T14:52:12;11.20;1.00
11577;DHT22;5844;51.496;6.788;2024-02-28T14:54:39;11.20;1.00
11577;DHT22;5844;51.496;6.788;2024-02-28T14:57:05;11.30;1.00
11577;DHT22;5844;51.496;6.788;2024-02-28T14:59:31;11.10;1.00
11577;DHT22;5844;51.496;6.788;2024-02-28T15:01:58;11.20;1.00
11577;DHT22;5844;51.496;6.788;2024-02-28T15:04:24;11.10;1.00
11577;DHT22;5844;51.496;6.788;2024-02-28T15:06:50;11.20;1.00
11577;DHT22;5844;51.496;6.788;2024-02-28T15:09:19;11.00;1.00
11577;DHT22;5844;51.496;6.788;2024-02-28T15:11:47;10.90;1.00
11577;DHT22;5844;51.496;6.788;2024-02-28T15:14:13;10.80;1.00
11577;DHT22;5844;51.496;6.788;2024-02-28T15:16:40;10.60;1.00
11577;DHT22;5844;51.496;6.788;2024-02-28T15:19:06;10.70;1.00
11577;DHT22;5844;51.496;6.788;2024-02-28T15:21:32;10.70;1.00
11577;DHT22;5844;51.496;6.788;2024-02-28T15:23:58;10.60;1.00
11577;DHT22;5844;51.496;6.788;2024-02-28T15:26:23;10.40;1.00
11577;DHT22;5844;51.496;6.788;2024-02-28T15:28:49;10.10;1.00
11577;DHT22;5844;51.496;6.788;2024-02-28T15:31:15;10.10;1.00
11577;DHT22;5844;51.496;6.788;2024-02-28T15:33:41;10.20;1.00
11577;DHT22;5844;51.496;6.788;2024-02-28T15:36:07;10.10;1.00
11577;DHT22;5844;51.496;6.788;2024-02-28T15:38:33;10.00;1.00
11577;DHT22;5844;51.496;6.788;2024-02-28T15:40:59;10.00;1.00
11577;DHT22;5844;51.496;6.788;2024-02-28T15:43:25;10.00;1.00
11577;DHT22;5844;51.496;6.788;2024-02-28T15:45:51;10.00;1.00
11577;DHT22;5844;51.496;6.788;2024-02-28T15:48:16;10.00;1.00
11577;DHT22;5844;51.496;6.788;2024-02-28T15:50:42;9.80;1.00
11577;DHT22;5844;51.496;6.788;2024-02-28T15:53:08;9.80;1.00
11577;DHT22;5844;51.496;6.788;2024-02-28T15:55:34;9.80;1.00
11577;DHT22;5844;51.496;6.788;2024-02-28T15:57:59;9.80;1.00
11577;DHT22;5844;51.496;6.788;2024-02-28T16:00:25;9.70;1.00
11577;DHT22;5844;51.496;6.788;2024-02-28T16:02:50;9.70;1.00
11577;DHT22;5844;51.496;6.788;2024-02-28T16:05:16;9.80;1.00
11577;DHT22;5844;51.496;6.788;2024-02-28T16:07:42;9.90;1.00
11577;DHT22;5844;51.496;6.788;2024-02-28T16:10:08;9.80;1.00